Terminal Aerodrome Forecast
Issued by NWS St Louis, MO

Home | Current Version | Previous Version | Text Only | Print | Product List | Glossary On
Versions: 1 2 3 4 5 6 7 8 9 10 11 12 13 14 15 16 17 18 19 20 21 22 23 24 25 26 27 28 29 30 31
176
FTUS43 KLSX 242322
TAFCOU
TAF
KCOU 242322Z 2500/2524 29015G24KT P6SM VCSH OVC030
     FM250300 30016G25KT P6SM OVC025
     FM250800 31015G24KT P6SM OVC015
     FM251300 31014G21KT P6SM BKN060
     FM251500 31014G22KT P6SM SCT100=

USA.gov is the U.S. government's official web portal to all federal, state and local government web resources and services.